createdAt,value
2017-05-12T00:00:02.897Z,72652
2017-05-12T00:00:12.992Z,72666
2017-05-12T00:00:23.079Z,72675
2017-05-12T00:00:33.166Z,72671
2017-05-12T00:00:43.259Z,72671
2017-05-12T00:00:53.068Z,72668
2017-05-12T00:01:03.160Z,72675
2017-05-12T00:01:12.684Z,72678
2017-05-12T00:01:22.778Z,72676
2017-05-12T00:01:32.869Z,72675
2017-05-12T00:01:42.964Z,72675
2017-05-12T00:01:53.054Z,72678
2017-05-12T00:02:02.867Z,72678
2017-05-12T00:02:12.960Z,72660
2017-05-12T00:02:23.056Z,72653
2017-05-12T00:02:32.857Z,72658
2017-05-12T00:02:42.949Z,72665
2017-05-12T00:02:53.047Z,72673
2017-05-12T00:03:03.143Z,72674
2017-05-12T00:03:13.238Z,72672
2017-05-12T00:03:23.346Z,72675
2017-05-12T00:03:33.157Z,72683
2017-05-12T00:03:43.249Z,72682
2017-05-12T00:03:52.771Z,72688
2017-05-12T00:04:02.584Z,72689
2017-05-12T00:04:12.100Z,72685
2017-05-12T00:04:22.198Z,72685
2017-05-12T00:04:32.295Z,72683
2017-05-12T00:04:42.396Z,72675
2017-05-12T00:04:52.209Z,72678
2017-05-12T00:05:02.296Z,72675
2017-05-12T00:05:12.392Z,72673
2017-05-12T00:05:22.484Z,72669
2017-05-12T00:05:32.572Z,72665
2017-05-12T00:05:42.659Z,72679
2017-05-12T00:05:52.753Z,72683
2017-05-12T00:06:02.557Z,72692
2017-05-12T00:06:12.357Z,72692
2017-05-12T00:06:22.454Z,72695
2017-05-12T00:06:32.549Z,72701
2017-05-12T00:06:42.644Z,72683
2017-05-12T00:06:52.739Z,72685
2017-05-12T00:07:02.827Z,72686
2017-05-12T00:07:12.634Z,72689
2017-05-12T00:07:22.731Z,72688
2017-05-12T00:07:32.821Z,72686
2017-05-12T00:07:42.923Z,72687
2017-05-12T00:07:53.021Z,72695
2017-05-12T00:08:03.123Z,72697
2017-05-12T00:08:12.937Z,72694
2017-05-12T00:08:23.076Z,72698
2017-05-12T00:08:32.883Z,72689
2017-05-12T00:08:42.981Z,72694
2017-05-12T00:08:52.794Z,72690
2017-05-12T00:09:02.888Z,72693
2017-05-12T00:09:12.982Z,72692
2017-05-12T00:09:23.068Z,72696
2017-05-12T00:09:33.163Z,72692
2017-05-12T00:09:42.978Z,72696
2017-05-12T00:09:52.796Z,72695
2017-05-12T00:10:02.599Z,72693
2017-05-12T00:10:12.405Z,72694
2017-05-12T00:10:22.490Z,72692
2017-05-12T00:10:32.582Z,72699
2017-05-12T00:10:42.679Z,72700
2017-05-12T00:10:52.769Z,72700
2017-05-12T00:11:02.861Z,72703
2017-05-12T00:11:12.959Z,72696
2017-05-12T00:11:23.052Z,72688
2017-05-12T00:11:33.143Z,72689
2017-05-12T00:11:42.947Z,72687
2017-05-12T00:11:53.040Z,72693
2017-05-12T00:12:02.843Z,72693
2017-05-12T00:12:12.646Z,72686
2017-05-12T00:12:22.750Z,72694
2017-05-12T00:12:32.841Z,72698
2017-05-12T00:12:42.938Z,72706
2017-05-12T00:12:53.029Z,72702
2017-05-12T00:13:02.839Z,72708
2017-05-12T00:13:12.935Z,72704
2017-05-12T00:13:23.030Z,72699
2017-05-12T00:13:33.134Z,72702
2017-05-12T00:13:43.232Z,72704
2017-05-12T00:13:53.331Z,72706
2017-05-12T00:14:02.848Z,72707
2017-05-12T00:14:12.938Z,72706
2017-05-12T00:14:23.035Z,72705
2017-05-12T00:14:33.125Z,72701
2017-05-12T00:14:43.217Z,72702
2017-05-12T00:14:53.319Z,72699
2017-05-12T00:15:03.419Z,72693
2017-05-12T00:15:13.224Z,72692
2017-05-12T00:15:23.321Z,72693
2017-05-12T00:15:32.838Z,72694
2017-05-12T00:15:42.939Z,72693
2017-05-12T00:15:52.744Z,72695
2017-05-12T00:16:02.847Z,72696
2017-05-12T00:16:12.652Z,72691
2017-05-12T00:16:22.451Z,72682
2017-05-12T00:16:32.555Z,72689
2017-05-12T00:16:42.644Z,72691
2017-05-12T00:16:52.166Z,72701
2017-05-12T00:17:01.976Z,72702
2017-05-12T00:17:11.538Z,72698
2017-05-12T00:17:21.630Z,72697
2017-05-12T00:17:31.725Z,72695
2017-05-12T00:17:41.820Z,72698
2017-05-12T00:17:51.912Z,72699
2017-05-12T00:18:01.723Z,72702
2017-05-12T00:18:11.531Z,72698
2017-05-12T00:18:21.636Z,72699
2017-05-12T00:18:31.730Z,72696
2017-05-12T00:18:41.826Z,72696
2017-05-12T00:18:51.630Z,72688
2017-05-12T00:19:01.769Z,72686
2017-05-12T00:19:11.575Z,72689
2017-05-12T00:19:21.671Z,72695
2017-05-12T00:19:31.767Z,72689
2017-05-12T00:19:41.566Z,72697
2017-05-12T00:19:51.657Z,72699
2017-05-12T00:20:01.749Z,72701
2017-05-12T00:20:11.605Z,72699
2017-05-12T00:20:21.690Z,72701
2017-05-12T00:20:31.784Z,72696
2017-05-12T00:20:41.873Z,72692
2017-05-12T00:20:51.965Z,72688
2017-05-12T00:21:02.058Z,72683
2017-05-12T00:21:12.150Z,72678
2017-05-12T00:21:22.246Z,72679
2017-05-12T00:21:32.339Z,72679
2017-05-12T00:21:42.148Z,72681
2017-05-12T00:21:52.245Z,72687
2017-05-12T00:22:02.340Z,72687
2017-05-12T00:22:11.853Z,72686
2017-05-12T00:22:21.895Z,72686
2017-05-12T00:22:31.991Z,72686
2017-05-12T00:22:41.797Z,72691
2017-05-12T00:22:51.906Z,72691
2017-05-12T00:23:01.715Z,72691
2017-05-12T00:23:11.802Z,72692
2017-05-12T00:23:21.896Z,72687
2017-05-12T00:23:31.986Z,72685
2017-05-12T00:23:41.795Z,72679
2017-05-12T00:23:51.891Z,72677
2017-05-12T00:24:01.984Z,72675
2017-05-12T00:24:12.086Z,72666
2017-05-12T00:24:22.185Z,72677
2017-05-12T00:24:32.280Z,72678
2017-05-12T00:24:42.380Z,72669
2017-05-12T00:24:52.482Z,72676
2017-05-12T00:25:02.570Z,72682
2017-05-12T00:25:12.377Z,72679
2017-05-12T00:25:22.470Z,72686
2017-05-12T00:25:32.563Z,72685
2017-05-12T00:25:42.656Z,72693
2017-05-12T00:25:52.465Z,72701
2017-05-12T00:26:01.982Z,72708
2017-05-12T00:26:12.081Z,72705
2017-05-12T00:26:22.197Z,72703
2017-05-12T00:26:32.289Z,72704
2017-05-12T00:26:42.385Z,72702
2017-05-12T00:26:52.475Z,72698
2017-05-12T00:27:02.564Z,72700
2017-05-12T00:27:12.370Z,72693
2017-05-12T00:27:22.463Z,72691
2017-05-12T00:27:32.557Z,72687
2017-05-12T00:27:42.655Z,72679
2017-05-12T00:27:52.752Z,72670
2017-05-12T00:28:02.845Z,72673
2017-05-12T00:28:12.934Z,72675
2017-05-12T00:28:22.741Z,72677
2017-05-12T00:28:32.832Z,72678
2017-05-12T00:28:42.929Z,72675
2017-05-12T00:28:53.028Z,72681
2017-05-12T00:29:03.118Z,72683
2017-05-12T00:29:13.215Z,72673
2017-05-12T00:29:23.305Z,72675
2017-05-12T00:29:33.397Z,72665
2017-05-12T00:29:43.491Z,72668
2017-05-12T00:29:53.595Z,72668
2017-05-12T00:30:03.410Z,72678
2017-05-12T00:30:12.642Z,72679
2017-05-12T00:30:22.732Z,72687
2017-05-12T00:30:32.826Z,72692
2017-05-12T00:30:42.921Z,72698
2017-05-12T00:30:53.021Z,72704
2017-05-12T00:31:02.826Z,72703
2017-05-12T00:31:12.914Z,72699
2017-05-12T00:31:23.020Z,72700
2017-05-12T00:31:32.825Z,72692
2017-05-12T00:31:42.911Z,72695
2017-05-12T00:31:53.000Z,72692
2017-05-12T00:32:03.093Z,72693
2017-05-12T00:32:12.895Z,72692
2017-05-12T00:32:22.727Z,72689
2017-05-12T00:32:32.820Z,72686
2017-05-12T00:32:42.912Z,72689
2017-05-12T00:32:52.725Z,72692
2017-05-12T00:33:02.532Z,72693
2017-05-12T00:33:12.059Z,72690
2017-05-12T00:33:22.163Z,72690
2017-05-12T00:33:32.260Z,72684
2017-05-12T00:33:42.347Z,72688
2017-05-12T00:33:52.152Z,72689
2017-05-12T00:34:02.251Z,72693
2017-05-12T00:34:12.350Z,72693
2017-05-12T00:34:22.446Z,72693
2017-05-12T00:34:32.537Z,72696
2017-05-12T00:34:42.637Z,72699
2017-05-12T00:34:52.455Z,72702
2017-05-12T00:35:02.571Z,72699
2017-05-12T00:35:12.384Z,72702
2017-05-12T00:35:22.475Z,72702
2017-05-12T00:35:32.568Z,72703
2017-05-12T00:35:42.661Z,72699
2017-05-12T00:35:52.757Z,72694
2017-05-12T00:36:02.859Z,72691
2017-05-12T00:36:12.973Z,72687
2017-05-12T00:36:22.770Z,72683
2017-05-12T00:36:32.868Z,72684
2017-05-12T00:36:42.963Z,72689
2017-05-12T00:36:53.061Z,72694
2017-05-12T00:37:03.160Z,72698
2017-05-12T00:37:13.265Z,72704
2017-05-12T00:37:23.361Z,72703
2017-05-12T00:37:33.459Z,72696
2017-05-12T00:37:43.267Z,72699
2017-05-12T00:37:53.359Z,72698
2017-05-12T00:38:03.450Z,72696
2017-05-12T00:38:13.538Z,72690
2017-05-12T00:38:23.629Z,72685
2017-05-12T00:38:33.150Z,72698
2017-05-12T00:38:42.957Z,72695
2017-05-12T00:38:53.049Z,72692
2017-05-12T00:39:03.145Z,72693
2017-05-12T00:39:13.264Z,72692
2017-05-12T00:39:23.132Z,72691
2017-05-12T00:39:33.231Z,72693
2017-05-12T00:39:43.332Z,72686
2017-05-12T00:39:53.431Z,72694
2017-05-12T00:40:03.526Z,72690
2017-05-12T00:40:13.626Z,72697
2017-05-12T00:40:23.722Z,72699
2017-05-12T00:40:33.241Z,72699
2017-05-12T00:40:43.335Z,72701
2017-05-12T00:40:53.426Z,72700
2017-05-12T00:41:03.515Z,72701
2017-05-12T00:41:13.605Z,72698
2017-05-12T00:41:23.697Z,72699
2017-05-12T00:41:33.251Z,72696
2017-05-12T00:41:43.346Z,72697
2017-05-12T00:41:53.159Z,72691
2017-05-12T00:42:03.248Z,72692
2017-05-12T00:42:13.052Z,72691
2017-05-12T00:42:23.140Z,72694
2017-05-12T00:42:33.231Z,72697
2017-05-12T00:42:42.751Z,72699
2017-05-12T00:42:52.848Z,72699
2017-05-12T00:43:02.651Z,72700
2017-05-12T00:43:12.452Z,72701
2017-05-12T00:43:22.544Z,72703
2017-05-12T00:43:32.638Z,72702
2017-05-12T00:43:42.726Z,72701
2017-05-12T00:43:52.539Z,72693
2017-05-12T00:44:02.056Z,72690
2017-05-12T00:44:12.161Z,72694
2017-05-12T00:44:22.259Z,72702
2017-05-12T00:44:32.359Z,72699
2017-05-12T00:44:42.163Z,72700
2017-05-12T00:44:52.252Z,72700
2017-05-12T00:45:02.062Z,72697
2017-05-12T00:45:12.158Z,72700
2017-05-12T00:45:21.673Z,72704
2017-05-12T00:45:31.772Z,72702
2017-05-12T00:45:41.578Z,72700
2017-05-12T00:45:51.710Z,72702
2017-05-12T00:46:01.806Z,72705
2017-05-12T00:46:11.898Z,72701
2017-05-12T00:46:21.699Z,72698
2017-05-12T00:46:31.798Z,72697
2017-05-12T00:46:41.891Z,72700
2017-05-12T00:46:51.985Z,72702
2017-05-12T00:47:01.831Z,72703
2017-05-12T00:47:11.636Z,72705
2017-05-12T00:47:21.728Z,72703
2017-05-12T00:47:31.530Z,72700
2017-05-12T00:47:41.631Z,72698
2017-05-12T00:47:51.730Z,72696
2017-05-12T00:48:01.250Z,72703
2017-05-12T00:48:11.055Z,72699
2017-05-12T00:48:21.149Z,72694
2017-05-12T00:48:30.955Z,72687
2017-05-12T00:48:41.054Z,72686
2017-05-12T00:48:51.152Z,72689
2017-05-12T00:49:01.250Z,72694
2017-05-12T00:49:11.340Z,72692
2017-05-12T00:49:21.431Z,72695
2017-05-12T00:49:30.953Z,72696
2017-05-12T00:49:41.040Z,72687
2017-05-12T00:49:51.130Z,72695
2017-05-12T00:50:01.224Z,72694
2017-05-12T00:50:11.314Z,72697
2017-05-12T00:50:21.117Z,72712
2017-05-12T00:50:31.211Z,72704
2017-05-12T00:50:41.320Z,72700
2017-05-12T00:50:51.125Z,72702
2017-05-12T00:51:01.217Z,72698
2017-05-12T00:51:11.313Z,72699
2017-05-12T00:51:21.407Z,72697
2017-05-12T00:51:31.495Z,72699
2017-05-12T00:51:41.588Z,72698
2017-05-12T00:51:51.399Z,72700
2017-05-12T00:52:01.546Z,72699
2017-05-12T00:52:11.634Z,72697
2017-05-12T00:52:21.478Z,72698
2017-05-12T00:52:30.998Z,72702
2017-05-12T00:52:41.093Z,72699
2017-05-12T00:52:51.193Z,72694
2017-05-12T00:53:01.287Z,72693
2017-05-12T00:53:11.381Z,72696
2017-05-12T00:53:21.469Z,72699
2017-05-12T00:53:31.559Z,72695
2017-05-12T00:53:41.658Z,72695
2017-05-12T00:53:51.758Z,72691
2017-05-12T00:54:01.569Z,72694
2017-05-12T00:54:11.671Z,72693
2017-05-12T00:54:21.811Z,72692
2017-05-12T00:54:31.617Z,72689
2017-05-12T00:54:41.761Z,72691
2017-05-12T00:54:51.861Z,72689
2017-05-12T00:55:01.947Z,72690
2017-05-12T00:55:12.036Z,72686
2017-05-12T00:55:21.840Z,72693
2017-05-12T00:55:31.932Z,72687
2017-05-12T00:55:42.022Z,72694
2017-05-12T00:55:52.115Z,72696
2017-05-12T00:56:02.214Z,72690
2017-05-12T00:56:12.306Z,72691
2017-05-12T00:56:22.124Z,72685
2017-05-12T00:56:32.211Z,72689
2017-05-12T00:56:42.301Z,72685
2017-05-12T00:56:52.105Z,72684
2017-05-12T00:57:02.197Z,72690
2017-05-12T00:57:12.287Z,72690
2017-05-12T00:57:22.390Z,72683
2017-05-12T00:57:32.480Z,72688
2017-05-12T00:57:42.586Z,72692
2017-05-12T00:57:52.681Z,72695
2017-05-12T00:58:02.776Z,72692
2017-05-12T00:58:12.579Z,72693
2017-05-12T00:58:22.668Z,72697
2017-05-12T00:58:32.763Z,72693
2017-05-12T00:58:42.569Z,72689
2017-05-12T00:58:52.671Z,72688
2017-05-12T00:59:02.770Z,72689
2017-05-12T00:59:12.576Z,72688
2017-05-12T00:59:22.671Z,72690
2017-05-12T00:59:32.765Z,72684
2017-05-12T00:59:42.864Z,72690
2017-05-12T00:59:52.957Z,72694
2017-05-12T01:00:02.762Z,72692
2017-05-12T01:00:12.281Z,72689
2017-05-12T01:00:22.370Z,72685
2017-05-12T01:00:32.459Z,72686
2017-05-12T01:00:42.268Z,72686
2017-05-12T01:00:52.086Z,72684
2017-05-12T01:01:02.184Z,72682
2017-05-12T01:01:12.277Z,72681
2017-05-12T01:01:22.373Z,72682
2017-05-12T01:01:32.468Z,72685
2017-05-12T01:01:42.560Z,72682
2017-05-12T01:01:52.367Z,72684
2017-05-12T01:02:02.457Z,72685
2017-05-12T01:02:12.586Z,72689
2017-05-12T01:02:22.676Z,72693
2017-05-12T01:02:32.773Z,72690
2017-05-12T01:02:42.863Z,72683
2017-05-12T01:02:52.959Z,72681
2017-05-12T01:03:02.762Z,72679
2017-05-12T01:03:12.567Z,72684
2017-05-12T01:03:22.660Z,72685
2017-05-12T01:03:32.757Z,72689
2017-05-12T01:03:42.861Z,72685
2017-05-12T01:03:52.958Z,72690
2017-05-12T01:04:03.055Z,72680
2017-05-12T01:04:13.150Z,72682
2017-05-12T01:04:23.242Z,72690
2017-05-12T01:04:33.340Z,72696
2017-05-12T01:04:43.427Z,72686
2017-05-12T01:04:53.523Z,72681
2017-05-12T01:05:03.042Z,72678
2017-05-12T01:05:12.562Z,72679
2017-05-12T01:05:22.651Z,72680
2017-05-12T01:05:32.461Z,72678
2017-05-12T01:05:42.556Z,72680
2017-05-12T01:05:52.653Z,72681
2017-05-12T01:06:02.746Z,72684
2017-05-12T01:06:12.842Z,72680
2017-05-12T01:06:22.935Z,72686
2017-05-12T01:06:33.025Z,72681
2017-05-12T01:06:43.113Z,72684
2017-05-12T01:06:53.212Z,72677
2017-05-12T01:07:03.304Z,72685
2017-05-12T01:07:13.112Z,72682
2017-05-12T01:07:23.206Z,72680
2017-05-12T01:07:33.297Z,72683
2017-05-12T01:07:43.394Z,72686
2017-05-12T01:07:53.494Z,72679
2017-05-12T01:08:03.579Z,72680
2017-05-12T01:08:13.673Z,72673
2017-05-12T01:08:23.768Z,72678
2017-05-12T01:08:33.579Z,72677
2017-05-12T01:08:43.673Z,72676
2017-05-12T01:08:53.763Z,72679
2017-05-12T01:09:03.862Z,72682
2017-05-12T01:09:13.952Z,72678
2017-05-12T01:09:24.046Z,72679
2017-05-12T01:09:33.853Z,72675
2017-05-12T01:09:43.948Z,72679
2017-05-12T01:09:54.059Z,72677
2017-05-12T01:10:03.894Z,72675
2017-05-12T01:10:13.124Z,72672
2017-05-12T01:10:23.217Z,72677
2017-05-12T01:10:33.310Z,72678
2017-05-12T01:10:43.118Z,72676
2017-05-12T01:10:53.212Z,72679
2017-05-12T01:11:03.304Z,72686
2017-05-12T01:11:13.392Z,72686
2017-05-12T01:11:23.496Z,72685
2017-05-12T01:11:33.300Z,72679
2017-05-12T01:11:43.448Z,72685
2017-05-12T01:11:53.540Z,72690
2017-05-12T01:12:03.057Z,72690
2017-05-12T01:12:13.151Z,72683
2017-05-12T01:12:22.951Z,72679
2017-05-12T01:12:33.045Z,72679
2017-05-12T01:12:43.135Z,72680
2017-05-12T01:12:53.282Z,72682
2017-05-12T01:13:03.385Z,72686
2017-05-12T01:13:13.483Z,72683
2017-05-12T01:13:23.572Z,72683
2017-05-12T01:13:33.378Z,72683
2017-05-12T01:13:43.182Z,72682
2017-05-12T01:13:53.274Z,72683
2017-05-12T01:14:03.372Z,72682
2017-05-12T01:14:13.171Z,72681
2017-05-12T01:14:23.261Z,72687
2017-05-12T01:14:33.076Z,72683
2017-05-12T01:14:43.164Z,72684
2017-05-12T01:14:52.681Z,72683
2017-05-12T01:15:02.490Z,72684
2017-05-12T01:15:12.293Z,72686
2017-05-12T01:15:22.384Z,72687
2017-05-12T01:15:32.477Z,72689
2017-05-12T01:15:42.617Z,72684
2017-05-12T01:15:52.711Z,72685
2017-05-12T01:16:02.516Z,72683
2017-05-12T01:16:12.325Z,72687
2017-05-12T01:16:22.420Z,72688
2017-05-12T01:16:32.510Z,72691
2017-05-12T01:16:42.603Z,72686
2017-05-12T01:16:52.693Z,72687
2017-05-12T01:17:02.792Z,72686
2017-05-12T01:17:12.888Z,72691
2017-05-12T01:17:22.984Z,72691
2017-05-12T01:17:33.085Z,72689
2017-05-12T01:17:42.893Z,72689
2017-05-12T01:17:52.988Z,72686
2017-05-12T01:18:02.513Z,72688
2017-05-12T01:18:12.321Z,72691
2017-05-12T01:18:22.413Z,72687
2017-05-12T01:18:32.525Z,72686
2017-05-12T01:18:42.328Z,72683
2017-05-12T01:18:52.135Z,72681
2017-05-12T01:19:02.236Z,72683
2017-05-12T01:19:12.332Z,72682
2017-05-12T01:19:22.144Z,72682
2017-05-12T01:19:32.238Z,72685
2017-05-12T01:19:42.336Z,72685
2017-05-12T01:19:52.138Z,72688
2017-05-12T01:20:01.949Z,72689
2017-05-12T01:20:12.043Z,72689
2017-05-12T01:20:22.133Z,72686
2017-05-12T01:20:32.223Z,72686
2017-05-12T01:20:42.321Z,72684
2017-05-12T01:20:52.134Z,72683
2017-05-12T01:21:02.225Z,72684
2017-05-12T01:21:12.318Z,72687
2017-05-12T01:21:22.408Z,72693
2017-05-12T01:21:32.499Z,72689
2017-05-12T01:21:42.618Z,72689
2017-05-12T01:21:52.708Z,72691
2017-05-12T01:22:02.808Z,72689
2017-05-12T01:22:12.039Z,72693
2017-05-12T01:22:22.137Z,72686
2017-05-12T01:22:31.938Z,72689
2017-05-12T01:22:41.742Z,72686
2017-05-12T01:22:51.836Z,72687
2017-05-12T01:23:01.636Z,72690
2017-05-12T01:23:11.444Z,72690
2017-05-12T01:23:21.542Z,72688
2017-05-12T01:23:31.393Z,72684
2017-05-12T01:23:41.247Z,72682
2017-05-12T01:23:51.339Z,72689
2017-05-12T01:24:01.433Z,72690
2017-05-12T01:24:11.243Z,72692
2017-05-12T01:24:21.337Z,72694
2017-05-12T01:24:31.442Z,72688
2017-05-12T01:24:41.542Z,72687
2017-05-12T01:24:51.637Z,72690
2017-05-12T01:25:01.158Z,72690
2017-05-12T01:25:10.965Z,72690
2017-05-12T01:25:21.054Z,72690
2017-05-12T01:25:31.149Z,72692
2017-05-12T01:25:41.244Z,72692
2017-05-12T01:25:51.338Z,72686
2017-05-12T01:26:01.437Z,72686
2017-05-12T01:26:11.253Z,72690
2017-05-12T01:26:21.343Z,72687
2017-05-12T01:26:31.151Z,72691
2017-05-12T01:26:40.665Z,72696
2017-05-12T01:26:50.759Z,72694
2017-05-12T01:27:00.858Z,72694
2017-05-12T01:27:10.947Z,72693
2017-05-12T01:27:20.748Z,72692
2017-05-12T01:27:30.554Z,72690
2017-05-12T01:27:40.652Z,72686
2017-05-12T01:27:50.749Z,72691
2017-05-12T01:28:00.839Z,72690
2017-05-12T01:28:10.942Z,72690
2017-05-12T01:28:21.049Z,72692
2017-05-12T01:28:31.150Z,72690
2017-05-12T01:28:41.239Z,72689
2017-05-12T01:28:51.333Z,72688
2017-05-12T01:29:01.427Z,72681
2017-05-12T01:29:10.943Z,72683
2017-05-12T01:29:21.035Z,72680
2017-05-12T01:29:31.134Z,72685
2017-05-12T01:29:41.236Z,72681
2017-05-12T01:29:51.333Z,72683
2017-05-12T01:30:01.425Z,72688
2017-05-12T01:30:11.232Z,72687
2017-05-12T01:30:21.327Z,72688
2017-05-12T01:30:31.419Z,72691
2017-05-12T01:30:41.529Z,72685
2017-05-12T01:30:51.627Z,72683
2017-05-12T01:31:01.719Z,72688
2017-05-12T01:31:11.525Z,72687
2017-05-12T01:31:21.613Z,72689
2017-05-12T01:31:31.705Z,72691
2017-05-12T01:31:41.793Z,72685
2017-05-12T01:31:51.886Z,72689
2017-05-12T01:32:01.990Z,72694
2017-05-12T01:32:12.082Z,72689
2017-05-12T01:32:21.890Z,72689
2017-05-12T01:32:31.991Z,72695
2017-05-12T01:32:42.091Z,72695
2017-05-12T01:32:52.185Z,72695
2017-05-12T01:33:02.285Z,72695
2017-05-12T01:33:12.387Z,72702
2017-05-12T01:33:22.197Z,72699
2017-05-12T01:33:31.718Z,72698
2017-05-12T01:33:41.821Z,72696
2017-05-12T01:33:51.911Z,72694
2017-05-12T01:34:01.715Z,72700
2017-05-12T01:34:11.516Z,72700
2017-05-12T01:34:21.323Z,72700
2017-05-12T01:34:31.417Z,72703
2017-05-12T01:34:41.513Z,72703
2017-05-12T01:34:51.612Z,72700
2017-05-12T01:35:01.702Z,72697
2017-05-12T01:35:11.794Z,72691
2017-05-12T01:35:21.887Z,72690
2017-05-12T01:35:31.980Z,72686
2017-05-12T01:35:42.067Z,72687
2017-05-12T01:35:51.872Z,72686
2017-05-12T01:36:01.684Z,72691
2017-05-12T01:36:11.776Z,72694
2017-05-12T01:36:21.574Z,72692
2017-05-12T01:36:31.727Z,72698
2017-05-12T01:36:41.818Z,72698
2017-05-12T01:36:51.335Z,72700
2017-05-12T01:37:01.428Z,72701
2017-05-12T01:37:11.515Z,72701
2017-05-12T01:37:21.610Z,72704
2017-05-12T01:37:31.707Z,72700
2017-05-12T01:37:41.801Z,72701
2017-05-12T01:37:51.611Z,72699
2017-05-12T01:38:01.698Z,72698
2017-05-12T01:38:11.215Z,72695
2017-05-12T01:38:21.307Z,72692
2017-05-12T01:38:31.106Z,72697
2017-05-12T01:38:41.194Z,72696
2017-05-12T01:38:51.285Z,72700
2017-05-12T01:39:01.381Z,72700
2017-05-12T01:39:11.183Z,72701
2017-05-12T01:39:20.990Z,72701
2017-05-12T01:39:31.085Z,72706
2017-05-12T01:39:41.174Z,72701
2017-05-12T01:39:51.277Z,72702
2017-05-12T01:40:01.089Z,72704
2017-05-12T01:40:11.184Z,72706
2017-05-12T01:40:21.272Z,72705
2017-05-12T01:40:31.082Z,72705
2017-05-12T01:40:40.885Z,72703
2017-05-12T01:40:50.980Z,72701
2017-05-12T01:41:01.076Z,72701
2017-05-12T01:41:11.172Z,72701
2017-05-12T01:41:21.267Z,72704
2017-05-12T01:41:31.363Z,72703
2017-05-12T01:41:41.513Z,72707
2017-05-12T01:41:51.607Z,72705
2017-05-12T01:42:01.699Z,72707
2017-05-12T01:42:11.503Z,72704
2017-05-12T01:42:21.595Z,72710
2017-05-12T01:42:31.695Z,72706
2017-05-12T01:42:41.790Z,72705
2017-05-12T01:42:51.881Z,72707
2017-05-12T01:43:01.983Z,72709
2017-05-12T01:43:11.786Z,72708
2017-05-12T01:43:21.876Z,72710
2017-05-12T01:43:31.966Z,72707
2017-05-12T01:43:42.059Z,72705
2017-05-12T01:43:52.160Z,72709
2017-05-12T01:44:01.708Z,72707
2017-05-12T01:44:11.518Z,72708
2017-05-12T01:44:21.615Z,72709
2017-05-12T01:44:31.706Z,72709
2017-05-12T01:44:41.798Z,72711
2017-05-12T01:44:51.896Z,72713
2017-05-12T01:45:01.993Z,72714
2017-05-12T01:45:11.805Z,72713
2017-05-12T01:45:21.895Z,72711
2017-05-12T01:45:31.699Z,72714
2017-05-12T01:45:41.794Z,72712
2017-05-12T01:45:51.886Z,72714
2017-05-12T01:46:01.981Z,72716
2017-05-12T01:46:12.083Z,72709
2017-05-12T01:46:22.175Z,72708
2017-05-12T01:46:32.267Z,72707
2017-05-12T01:46:42.071Z,72704
2017-05-12T01:46:51.879Z,72703
2017-05-12T01:47:01.972Z,72700
2017-05-12T01:47:11.490Z,72699
2017-05-12T01:47:21.296Z,72698
2017-05-12T01:47:31.388Z,72697
2017-05-12T01:47:41.533Z,72700
2017-05-12T01:47:51.632Z,72701
2017-05-12T01:48:01.728Z,72701
2017-05-12T01:48:11.822Z,72703
2017-05-12T01:48:21.910Z,72706
2017-05-12T01:48:32.008Z,72707
2017-05-12T01:48:42.099Z,72708
2017-05-12T01:48:51.905Z,72707
2017-05-12T01:49:02.006Z,72709
2017-05-12T01:49:11.810Z,72709
2017-05-12T01:49:21.909Z,72711
2017-05-12T01:49:32.008Z,72712
2017-05-12T01:49:42.106Z,72713
2017-05-12T01:49:52.202Z,72710
2017-05-12T01:50:02.303Z,72705
2017-05-12T01:50:12.397Z,72707
2017-05-12T01:50:22.527Z,72707
2017-05-12T01:50:32.622Z,72710
2017-05-12T01:50:42.760Z,72714
2017-05-12T01:50:52.855Z,72711
2017-05-12T01:51:02.660Z,72713
2017-05-12T01:51:12.749Z,72712
2017-05-12T01:51:22.555Z,72714
2017-05-12T01:51:32.360Z,72711
2017-05-12T01:51:42.452Z,72710
2017-05-12T01:51:52.255Z,72713
2017-05-12T01:52:02.059Z,72712
2017-05-12T01:52:11.862Z,72711
2017-05-12T01:52:21.665Z,72709
2017-05-12T01:52:31.760Z,72708
2017-05-12T01:52:41.622Z,72713
2017-05-12T01:52:51.720Z,72712
2017-05-12T01:53:01.817Z,72710
2017-05-12T01:53:11.621Z,72712
2017-05-12T01:53:21.713Z,72713
2017-05-12T01:53:31.813Z,72714
2017-05-12T01:53:41.613Z,72712
2017-05-12T01:53:51.711Z,72712
2017-05-12T01:54:01.806Z,72710
2017-05-12T01:54:11.898Z,72710
2017-05-12T01:54:21.994Z,72710
2017-05-12T01:54:32.090Z,72711
2017-05-12T01:54:42.181Z,72707
2017-05-12T01:54:52.276Z,72707
2017-05-12T01:55:02.085Z,72706
2017-05-12T01:55:12.179Z,72705
2017-05-12T01:55:22.270Z,72707
2017-05-12T01:55:32.362Z,72705
2017-05-12T01:55:42.452Z,72709
2017-05-12T01:55:52.549Z,72710
2017-05-12T01:56:02.638Z,72712
2017-05-12T01:56:12.441Z,72709
2017-05-12T01:56:22.580Z,72711
2017-05-12T01:56:32.675Z,72715
2017-05-12T01:56:42.775Z,72712
2017-05-12T01:56:52.871Z,72709
2017-05-12T01:57:02.959Z,72709
2017-05-12T01:57:13.051Z,72711
2017-05-12T01:57:23.147Z,72710
2017-05-12T01:57:32.949Z,72708
2017-05-12T01:57:43.041Z,72707
2017-05-12T01:57:52.862Z,72710
2017-05-12T01:58:02.957Z,72706
2017-05-12T01:58:13.050Z,72709
2017-05-12T01:58:23.144Z,72707
2017-05-12T01:58:33.234Z,72708
2017-05-12T01:58:42.751Z,72712
2017-05-12T01:58:52.554Z,72714
2017-05-12T01:59:02.649Z,72712
2017-05-12T01:59:12.741Z,72712
2017-05-12T01:59:22.831Z,72710
2017-05-12T01:59:32.645Z,72708
2017-05-12T01:59:42.742Z,72711
2017-05-12T01:59:52.563Z,72710
2017-05-12T02:00:02.660Z,72710
2017-05-12T02:00:12.467Z,72711
2017-05-12T02:00:22.597Z,72713
2017-05-12T02:00:32.700Z,72711
2017-05-12T02:00:42.800Z,72712
2017-05-12T02:00:52.896Z,72711
2017-05-12T02:01:02.988Z,72714
2017-05-12T02:01:12.828Z,72712
2017-05-12T02:01:22.929Z,72710
2017-05-12T02:01:33.041Z,72711
2017-05-12T02:01:42.842Z,72709
2017-05-12T02:01:52.938Z,72708
2017-05-12T02:02:03.035Z,72706
2017-05-12T02:02:12.843Z,72713
2017-05-12T02:02:22.935Z,72713
2017-05-12T02:02:33.031Z,72715
2017-05-12T02:02:43.127Z,72713
2017-05-12T02:02:53.226Z,72710
2017-05-12T02:03:03.028Z,72713
2017-05-12T02:03:12.544Z,72709
2017-05-12T02:03:22.358Z,72712
2017-05-12T02:03:32.454Z,72714
2017-05-12T02:03:42.546Z,72709
2017-05-12T02:03:52.641Z,72710
2017-05-12T02:04:02.735Z,72707
2017-05-12T02:04:12.264Z,72709
2017-05-12T02:04:22.362Z,72707
2017-05-12T02:04:32.457Z,72709
2017-05-12T02:04:42.557Z,72710
2017-05-12T02:04:52.419Z,72712
2017-05-12T02:05:02.514Z,72716
2017-05-12T02:05:12.315Z,72712
2017-05-12T02:05:22.405Z,72714
2017-05-12T02:05:32.498Z,72712
2017-05-12T02:05:42.298Z,72712
2017-05-12T02:05:52.435Z,72710
2017-05-12T02:06:02.533Z,72712
2017-05-12T02:06:12.339Z,72707
2017-05-12T02:06:22.428Z,72710
2017-05-12T02:06:32.518Z,72709
2017-05-12T02:06:42.615Z,72712
2017-05-12T02:06:52.427Z,72714
2017-05-12T02:07:02.521Z,72717
2017-05-12T02:07:12.653Z,72717
2017-05-12T02:07:22.746Z,72715
2017-05-12T02:07:32.835Z,72714
2017-05-12T02:07:42.936Z,72714
2017-05-12T02:07:53.082Z,72710
2017-05-12T02:08:03.177Z,72711
2017-05-12T02:08:13.271Z,72709
2017-05-12T02:08:23.361Z,72704
2017-05-12T02:08:33.465Z,72702
2017-05-12T02:08:43.270Z,72703